sensor_id;sensor_type;location;lat;lon;timestamp;P1;durP1;ratioP1;P2;durP2;ratioP2
14474;SDS011;7323;50.848;4.334;2024-03-06T00:00:34;6.50;;;5.10;;
14474;SDS011;7323;50.848;4.334;2024-03-06T00:05:28;6.40;;;5.30;;
14474;SDS011;7323;50.848;4.334;2024-03-06T00:07:54;6.73;;;5.87;;
14474;SDS011;7323;50.848;4.334;2024-03-06T00:10:19;7.63;;;5.43;;
14474;SDS011;7323;50.848;4.334;2024-03-06T00:12:45;7.57;;;6.13;;
14474;SDS011;7323;50.848;4.334;2024-03-06T00:15:11;6.20;;;5.33;;
14474;SDS011;7323;50.848;4.334;2024-03-06T00:17:36;5.73;;;5.10;;
14474;SDS011;7323;50.848;4.334;2024-03-06T00:20:03;7.27;;;5.13;;
14474;SDS011;7323;50.848;4.334;2024-03-06T00:22:34;6.67;;;5.10;;
14474;SDS011;7323;50.848;4.334;2024-03-06T00:25:01;6.20;;;5.00;;
14474;SDS011;7323;50.848;4.334;2024-03-06T00:27:28;8.33;;;5.87;;
14474;SDS011;7323;50.848;4.334;2024-03-06T00:29:54;7.33;;;5.73;;
14474;SDS011;7323;50.848;4.334;2024-03-06T00:32:21;6.40;;;5.20;;
14474;SDS011;7323;50.848;4.334;2024-03-06T00:34:48;9.30;;;5.83;;
14474;SDS011;7323;50.848;4.334;2024-03-06T00:37:17;7.37;;;5.50;;
14474;SDS011;7323;50.848;4.334;2024-03-06T00:39:43;6.80;;;5.53;;
14474;SDS011;7323;50.848;4.334;2024-03-06T00:42:10;6.77;;;5.67;;
14474;SDS011;7323;50.848;4.334;2024-03-06T00:44:40;5.80;;;5.13;;
14474;SDS011;7323;50.848;4.334;2024-03-06T00:47:09;7.47;;;5.67;;
14474;SDS011;7323;50.848;4.334;2024-03-06T00:49:36;6.57;;;5.33;;
14474;SDS011;7323;50.848;4.334;2024-03-06T00:52:02;7.10;;;5.27;;
14474;SDS011;7323;50.848;4.334;2024-03-06T00:54:29;6.40;;;5.73;;
14474;SDS011;7323;50.848;4.334;2024-03-06T00:56:55;8.33;;;5.60;;
14474;SDS011;7323;50.848;4.334;2024-03-06T00:59:23;6.83;;;5.70;;
14474;SDS011;7323;50.848;4.334;2024-03-06T01:01:49;7.60;;;5.90;;
14474;SDS011;7323;50.848;4.334;2024-03-06T01:04:15;7.43;;;5.23;;
14474;SDS011;7323;50.848;4.334;2024-03-06T01:06:43;6.23;;;5.63;;
14474;SDS011;7323;50.848;4.334;2024-03-06T01:09:17;6.10;;;5.13;;
14474;SDS011;7323;50.848;4.334;2024-03-06T01:14:16;7.53;;;5.53;;
14474;SDS011;7323;50.848;4.334;2024-03-06T01:16:42;6.47;;;5.77;;
14474;SDS011;7323;50.848;4.334;2024-03-06T01:19:07;7.03;;;5.83;;
14474;SDS011;7323;50.848;4.334;2024-03-06T01:21:35;7.50;;;5.87;;
14474;SDS011;7323;50.848;4.334;2024-03-06T01:24:01;8.23;;;5.57;;
14474;SDS011;7323;50.848;4.334;2024-03-06T01:26:27;7.13;;;5.63;;
14474;SDS011;7323;50.848;4.334;2024-03-06T01:28:52;6.73;;;5.40;;
14474;SDS011;7323;50.848;4.334;2024-03-06T01:31:19;7.00;;;5.70;;
14474;SDS011;7323;50.848;4.334;2024-03-06T01:33:45;8.53;;;5.80;;
14474;SDS011;7323;50.848;4.334;2024-03-06T01:38:40;6.80;;;5.83;;
14474;SDS011;7323;50.848;4.334;2024-03-06T01:43:38;7.33;;;6.00;;
14474;SDS011;7323;50.848;4.334;2024-03-06T01:46:04;7.63;;;5.90;;
14474;SDS011;7323;50.848;4.334;2024-03-06T01:48:32;7.07;;;6.20;;
14474;SDS011;7323;50.848;4.334;2024-03-06T01:50:59;7.23;;;5.80;;
14474;SDS011;7323;50.848;4.334;2024-03-06T01:53:29;7.40;;;6.60;;
14474;SDS011;7323;50.848;4.334;2024-03-06T01:55:59;8.10;;;6.27;;
14474;SDS011;7323;50.848;4.334;2024-03-06T01:58:26;8.87;;;6.53;;
14474;SDS011;7323;50.848;4.334;2024-03-06T02:00:54;6.53;;;5.80;;
14474;SDS011;7323;50.848;4.334;2024-03-06T02:03:20;6.70;;;6.00;;
14474;SDS011;7323;50.848;4.334;2024-03-06T02:05:50;6.83;;;6.10;;
14474;SDS011;7323;50.848;4.334;2024-03-06T02:08:16;6.93;;;5.57;;
14474;SDS011;7323;50.848;4.334;2024-03-06T02:10:43;8.00;;;6.03;;
14474;SDS011;7323;50.848;4.334;2024-03-06T02:13:09;6.97;;;6.27;;
14474;SDS011;7323;50.848;4.334;2024-03-06T02:15:37;7.00;;;5.83;;
14474;SDS011;7323;50.848;4.334;2024-03-06T02:18:06;7.20;;;6.00;;
14474;SDS011;7323;50.848;4.334;2024-03-06T02:20:39;9.83;;;5.97;;
14474;SDS011;7323;50.848;4.334;2024-03-06T02:23:07;6.20;;;5.03;;
14474;SDS011;7323;50.848;4.334;2024-03-06T02:25:34;7.60;;;5.70;;
14474;SDS011;7323;50.848;4.334;2024-03-06T02:28:00;6.73;;;6.00;;
14474;SDS011;7323;50.848;4.334;2024-03-06T02:30:26;8.07;;;5.80;;
14474;SDS011;7323;50.848;4.334;2024-03-06T02:32:52;7.97;;;6.40;;
14474;SDS011;7323;50.848;4.334;2024-03-06T02:35:20;6.93;;;6.13;;
14474;SDS011;7323;50.848;4.334;2024-03-06T02:37:49;6.20;;;5.60;;
14474;SDS011;7323;50.848;4.334;2024-03-06T02:40:14;7.53;;;6.53;;
14474;SDS011;7323;50.848;4.334;2024-03-06T02:42:43;7.87;;;6.50;;
14474;SDS011;7323;50.848;4.334;2024-03-06T02:45:09;6.90;;;6.10;;
14474;SDS011;7323;50.848;4.334;2024-03-06T02:47:34;6.90;;;6.20;;
14474;SDS011;7323;50.848;4.334;2024-03-06T02:50:00;7.00;;;5.93;;
14474;SDS011;7323;50.848;4.334;2024-03-06T02:52:25;7.87;;;6.33;;
14474;SDS011;7323;50.848;4.334;2024-03-06T02:54:51;8.20;;;6.30;;
14474;SDS011;7323;50.848;4.334;2024-03-06T02:57:17;9.07;;;6.20;;
14474;SDS011;7323;50.848;4.334;2024-03-06T03:02:11;12.07;;;6.27;;
14474;SDS011;7323;50.848;4.334;2024-03-06T03:04:37;6.53;;;5.83;;
14474;SDS011;7323;50.848;4.334;2024-03-06T03:07:03;7.53;;;6.43;;
14474;SDS011;7323;50.848;4.334;2024-03-06T03:09:31;7.60;;;6.70;;
14474;SDS011;7323;50.848;4.334;2024-03-06T03:12:13;8.43;;;6.23;;
14474;SDS011;7323;50.848;4.334;2024-03-06T03:14:41;7.40;;;6.70;;
14474;SDS011;7323;50.848;4.334;2024-03-06T03:17:09;8.10;;;6.90;;
14474;SDS011;7323;50.848;4.334;2024-03-06T03:22:07;7.73;;;6.80;;
14474;SDS011;7323;50.848;4.334;2024-03-06T03:24:34;8.90;;;7.47;;
14474;SDS011;7323;50.848;4.334;2024-03-06T03:27:03;9.27;;;7.83;;
14474;SDS011;7323;50.848;4.334;2024-03-06T03:29:28;8.17;;;6.67;;
14474;SDS011;7323;50.848;4.334;2024-03-06T03:31:55;8.67;;;7.60;;
14474;SDS011;7323;50.848;4.334;2024-03-06T03:34:22;8.70;;;7.70;;
14474;SDS011;7323;50.848;4.334;2024-03-06T03:36:48;9.67;;;8.47;;
14474;SDS011;7323;50.848;4.334;2024-03-06T03:39:14;8.93;;;7.83;;
14474;SDS011;7323;50.848;4.334;2024-03-06T03:41:48;9.90;;;7.80;;
14474;SDS011;7323;50.848;4.334;2024-03-06T03:44:17;9.73;;;8.73;;
14474;SDS011;7323;50.848;4.334;2024-03-06T03:46:48;9.43;;;8.43;;
14474;SDS011;7323;50.848;4.334;2024-03-06T03:51:46;11.57;;;9.00;;
14474;SDS011;7323;50.848;4.334;2024-03-06T03:54:12;11.20;;;8.43;;
14474;SDS011;7323;50.848;4.334;2024-03-06T03:59:07;10.30;;;8.97;;
14474;SDS011;7323;50.848;4.334;2024-03-06T04:01:33;10.50;;;9.10;;
14474;SDS011;7323;50.848;4.334;2024-03-06T04:04:02;11.83;;;9.13;;
14474;SDS011;7323;50.848;4.334;2024-03-06T04:06:27;11.07;;;8.80;;
14474;SDS011;7323;50.848;4.334;2024-03-06T04:08:53;12.27;;;9.47;;
14474;SDS011;7323;50.848;4.334;2024-03-06T04:11:23;9.17;;;8.27;;
14474;SDS011;7323;50.848;4.334;2024-03-06T04:13:52;11.07;;;8.80;;
14474;SDS011;7323;50.848;4.334;2024-03-06T04:16:18;10.27;;;9.20;;
14474;SDS011;7323;50.848;4.334;2024-03-06T04:18:43;10.20;;;8.73;;
14474;SDS011;7323;50.848;4.334;2024-03-06T04:21:10;11.23;;;8.97;;
14474;SDS011;7323;50.848;4.334;2024-03-06T04:23:37;11.53;;;9.57;;
14474;SDS011;7323;50.848;4.334;2024-03-06T04:26:03;10.87;;;8.57;;
14474;SDS011;7323;50.848;4.334;2024-03-06T04:28:31;9.07;;;8.10;;
14474;SDS011;7323;50.848;4.334;2024-03-06T04:30:57;9.20;;;8.00;;
14474;SDS011;7323;50.848;4.334;2024-03-06T04:33:23;9.50;;;8.50;;
14474;SDS011;7323;50.848;4.334;2024-03-06T04:35:48;10.23;;;8.73;;
14474;SDS011;7323;50.848;4.334;2024-03-06T04:38:14;10.23;;;8.63;;
14474;SDS011;7323;50.848;4.334;2024-03-06T04:40:40;11.23;;;8.97;;
14474;SDS011;7323;50.848;4.334;2024-03-06T04:43:07;9.23;;;8.27;;
14474;SDS011;7323;50.848;4.334;2024-03-06T04:45:33;8.50;;;7.60;;
14474;SDS011;7323;50.848;4.334;2024-03-06T04:47:59;9.90;;;8.43;;
14474;SDS011;7323;50.848;4.334;2024-03-06T04:50:24;9.43;;;7.87;;
14474;SDS011;7323;50.848;4.334;2024-03-06T04:52:50;9.80;;;8.63;;
14474;SDS011;7323;50.848;4.334;2024-03-06T04:55:16;9.70;;;7.97;;
14474;SDS011;7323;50.848;4.334;2024-03-06T04:57:45;10.23;;;8.73;;
14474;SDS011;7323;50.848;4.334;2024-03-06T05:00:11;12.37;;;9.13;;
14474;SDS011;7323;50.848;4.334;2024-03-06T05:02:38;10.27;;;8.33;;
14474;SDS011;7323;50.848;4.334;2024-03-06T05:05:04;11.97;;;8.83;;
14474;SDS011;7323;50.848;4.334;2024-03-06T05:07:31;11.77;;;9.90;;
14474;SDS011;7323;50.848;4.334;2024-03-06T05:09:59;12.40;;;10.47;;
14474;SDS011;7323;50.848;4.334;2024-03-06T05:12:29;14.30;;;11.60;;
14474;SDS011;7323;50.848;4.334;2024-03-06T05:14:55;13.43;;;10.53;;
14474;SDS011;7323;50.848;4.334;2024-03-06T05:17:21;11.50;;;10.30;;
14474;SDS011;7323;50.848;4.334;2024-03-06T05:19:51;10.53;;;9.37;;
14474;SDS011;7323;50.848;4.334;2024-03-06T05:22:20;9.23;;;8.33;;
14474;SDS011;7323;50.848;4.334;2024-03-06T05:24:56;10.93;;;9.03;;
14474;SDS011;7323;50.848;4.334;2024-03-06T05:27:23;10.40;;;8.83;;
14474;SDS011;7323;50.848;4.334;2024-03-06T05:29:49;11.57;;;8.63;;
14474;SDS011;7323;50.848;4.334;2024-03-06T05:32:15;10.00;;;8.67;;
14474;SDS011;7323;50.848;4.334;2024-03-06T05:34:41;11.70;;;9.30;;
14474;SDS011;7323;50.848;4.334;2024-03-06T05:39:38;10.07;;;8.23;;
14474;SDS011;7323;50.848;4.334;2024-03-06T05:42:04;12.57;;;10.30;;
14474;SDS011;7323;50.848;4.334;2024-03-06T05:44:30;11.63;;;10.23;;
14474;SDS011;7323;50.848;4.334;2024-03-06T05:46:57;13.50;;;11.13;;
14474;SDS011;7323;50.848;4.334;2024-03-06T05:49:27;13.10;;;10.27;;
14474;SDS011;7323;50.848;4.334;2024-03-06T05:54:24;10.30;;;9.00;;
14474;SDS011;7323;50.848;4.334;2024-03-06T05:56:51;10.80;;;8.67;;
14474;SDS011;7323;50.848;4.334;2024-03-06T05:59:17;12.00;;;8.73;;
14474;SDS011;7323;50.848;4.334;2024-03-06T06:01:43;10.27;;;8.50;;
14474;SDS011;7323;50.848;4.334;2024-03-06T06:04:10;9.60;;;7.73;;
14474;SDS011;7323;50.848;4.334;2024-03-06T06:06:40;9.77;;;8.47;;
14474;SDS011;7323;50.848;4.334;2024-03-06T06:09:06;10.83;;;9.30;;
14474;SDS011;7323;50.848;4.334;2024-03-06T06:11:32;11.17;;;9.33;;
14474;SDS011;7323;50.848;4.334;2024-03-06T06:14:01;10.73;;;9.17;;
14474;SDS011;7323;50.848;4.334;2024-03-06T06:16:26;10.30;;;9.20;;
14474;SDS011;7323;50.848;4.334;2024-03-06T06:18:54;12.50;;;9.77;;
14474;SDS011;7323;50.848;4.334;2024-03-06T06:21:19;11.10;;;9.30;;
14474;SDS011;7323;50.848;4.334;2024-03-06T06:23:46;10.03;;;9.00;;
14474;SDS011;7323;50.848;4.334;2024-03-06T06:26:12;12.43;;;9.90;;
14474;SDS011;7323;50.848;4.334;2024-03-06T06:31:09;12.00;;;9.57;;
14474;SDS011;7323;50.848;4.334;2024-03-06T06:33:35;10.67;;;8.80;;
14474;SDS011;7323;50.848;4.334;2024-03-06T06:36:00;11.33;;;9.73;;
14474;SDS011;7323;50.848;4.334;2024-03-06T06:38:26;13.03;;;9.47;;
14474;SDS011;7323;50.848;4.334;2024-03-06T06:40:52;12.10;;;10.00;;
14474;SDS011;7323;50.848;4.334;2024-03-06T06:43:17;12.87;;;9.40;;
14474;SDS011;7323;50.848;4.334;2024-03-06T06:45:43;13.50;;;9.33;;
14474;SDS011;7323;50.848;4.334;2024-03-06T06:48:10;11.53;;;9.70;;
14474;SDS011;7323;50.848;4.334;2024-03-06T06:50:35;11.63;;;9.27;;
14474;SDS011;7323;50.848;4.334;2024-03-06T06:53:01;16.20;;;9.63;;
14474;SDS011;7323;50.848;4.334;2024-03-06T06:55:28;10.77;;;9.53;;
14474;SDS011;7323;50.848;4.334;2024-03-06T06:57:53;13.33;;;9.37;;
14474;SDS011;7323;50.848;4.334;2024-03-06T07:00:20;10.93;;;9.80;;
14474;SDS011;7323;50.848;4.334;2024-03-06T07:02:48;13.10;;;9.37;;
14474;SDS011;7323;50.848;4.334;2024-03-06T07:05:14;13.10;;;9.50;;
14474;SDS011;7323;50.848;4.334;2024-03-06T07:07:40;15.50;;;9.97;;
14474;SDS011;7323;50.848;4.334;2024-03-06T07:10:06;15.00;;;9.57;;
14474;SDS011;7323;50.848;4.334;2024-03-06T07:12:33;14.47;;;10.40;;
14474;SDS011;7323;50.848;4.334;2024-03-06T07:14:59;18.30;;;9.97;;
14474;SDS011;7323;50.848;4.334;2024-03-06T07:17:24;15.67;;;10.60;;
14474;SDS011;7323;50.848;4.334;2024-03-06T07:19:50;20.83;;;10.60;;
14474;SDS011;7323;50.848;4.334;2024-03-06T07:22:17;16.60;;;10.27;;
14474;SDS011;7323;50.848;4.334;2024-03-06T07:24:43;14.10;;;10.00;;
14474;SDS011;7323;50.848;4.334;2024-03-06T07:27:09;15.80;;;9.53;;
14474;SDS011;7323;50.848;4.334;2024-03-06T07:29:35;19.63;;;10.43;;
14474;SDS011;7323;50.848;4.334;2024-03-06T07:32:02;17.47;;;10.20;;
14474;SDS011;7323;50.848;4.334;2024-03-06T07:34:30;19.03;;;10.20;;
14474;SDS011;7323;50.848;4.334;2024-03-06T07:36:56;18.73;;;10.13;;
14474;SDS011;7323;50.848;4.334;2024-03-06T07:39:24;18.00;;;10.47;;
14474;SDS011;7323;50.848;4.334;2024-03-06T07:41:50;14.77;;;9.73;;
14474;SDS011;7323;50.848;4.334;2024-03-06T07:44:16;15.70;;;10.17;;
14474;SDS011;7323;50.848;4.334;2024-03-06T07:46:42;13.13;;;9.60;;
14474;SDS011;7323;50.848;4.334;2024-03-06T07:49:08;16.50;;;9.70;;
14474;SDS011;7323;50.848;4.334;2024-03-06T07:51:33;11.13;;;9.17;;
14474;SDS011;7323;50.848;4.334;2024-03-06T07:54:00;10.97;;;8.60;;
14474;SDS011;7323;50.848;4.334;2024-03-06T07:56:26;13.13;;;8.17;;
14474;SDS011;7323;50.848;4.334;2024-03-06T07:58:52;9.97;;;7.60;;
14474;SDS011;7323;50.848;4.334;2024-03-06T08:01:19;11.83;;;7.97;;
14474;SDS011;7323;50.848;4.334;2024-03-06T08:03:45;15.03;;;8.67;;
14474;SDS011;7323;50.848;4.334;2024-03-06T08:06:11;14.60;;;8.70;;
14474;SDS011;7323;50.848;4.334;2024-03-06T08:08:40;14.43;;;8.07;;
14474;SDS011;7323;50.848;4.334;2024-03-06T08:11:10;11.63;;;8.10;;
14474;SDS011;7323;50.848;4.334;2024-03-06T08:13:36;13.37;;;8.83;;
14474;SDS011;7323;50.848;4.334;2024-03-06T08:16:03;12.40;;;7.87;;
14474;SDS011;7323;50.848;4.334;2024-03-06T08:18:30;14.33;;;9.13;;
14474;SDS011;7323;50.848;4.334;2024-03-06T08:20:56;10.97;;;8.07;;
14474;SDS011;7323;50.848;4.334;2024-03-06T08:23:22;11.00;;;7.67;;
14474;SDS011;7323;50.848;4.334;2024-03-06T08:25:48;10.13;;;7.10;;
14474;SDS011;7323;50.848;4.334;2024-03-06T08:28:14;9.90;;;7.07;;
14474;SDS011;7323;50.848;4.334;2024-03-06T08:30:40;8.07;;;6.73;;
14474;SDS011;7323;50.848;4.334;2024-03-06T08:33:06;9.77;;;7.20;;
14474;SDS011;7323;50.848;4.334;2024-03-06T08:35:32;11.83;;;6.70;;
14474;SDS011;7323;50.848;4.334;2024-03-06T08:37:58;12.50;;;6.90;;
14474;SDS011;7323;50.848;4.334;2024-03-06T08:40:23;9.93;;;6.87;;
14474;SDS011;7323;50.848;4.334;2024-03-06T08:42:50;11.23;;;6.90;;
14474;SDS011;7323;50.848;4.334;2024-03-06T08:45:16;10.60;;;7.37;;
14474;SDS011;7323;50.848;4.334;2024-03-06T08:47:43;9.70;;;6.17;;
14474;SDS011;7323;50.848;4.334;2024-03-06T08:50:12;9.47;;;6.50;;
14474;SDS011;7323;50.848;4.334;2024-03-06T08:52:39;8.13;;;5.87;;
14474;SDS011;7323;50.848;4.334;2024-03-06T08:55:06;10.43;;;6.60;;
14474;SDS011;7323;50.848;4.334;2024-03-06T08:57:33;8.77;;;6.30;;
14474;SDS011;7323;50.848;4.334;2024-03-06T08:59:59;9.80;;;6.53;;
14474;SDS011;7323;50.848;4.334;2024-03-06T09:02:25;7.40;;;6.00;;
14474;SDS011;7323;50.848;4.334;2024-03-06T09:04:51;8.93;;;6.53;;
14474;SDS011;7323;50.848;4.334;2024-03-06T09:07:17;10.53;;;6.53;;
14474;SDS011;7323;50.848;4.334;2024-03-06T09:09:43;8.80;;;6.73;;
14474;SDS011;7323;50.848;4.334;2024-03-06T09:12:09;8.97;;;6.63;;
14474;SDS011;7323;50.848;4.334;2024-03-06T09:14:36;10.13;;;7.07;;
14474;SDS011;7323;50.848;4.334;2024-03-06T09:17:02;9.67;;;6.87;;
14474;SDS011;7323;50.848;4.334;2024-03-06T09:19:29;8.60;;;6.70;;
14474;SDS011;7323;50.848;4.334;2024-03-06T09:21:55;10.43;;;7.20;;
14474;SDS011;7323;50.848;4.334;2024-03-06T09:24:21;12.23;;;7.93;;
14474;SDS011;7323;50.848;4.334;2024-03-06T09:26:51;10.93;;;7.23;;
14474;SDS011;7323;50.848;4.334;2024-03-06T09:29:17;10.23;;;7.00;;
14474;SDS011;7323;50.848;4.334;2024-03-06T09:31:43;7.53;;;6.73;;
14474;SDS011;7323;50.848;4.334;2024-03-06T09:34:09;10.93;;;7.00;;
14474;SDS011;7323;50.848;4.334;2024-03-06T09:36:37;10.63;;;7.03;;
14474;SDS011;7323;50.848;4.334;2024-03-06T09:39:04;9.13;;;7.23;;
14474;SDS011;7323;50.848;4.334;2024-03-06T09:41:30;7.67;;;6.87;;
14474;SDS011;7323;50.848;4.334;2024-03-06T09:43:56;10.20;;;6.87;;
14474;SDS011;7323;50.848;4.334;2024-03-06T09:46:22;10.20;;;7.20;;
14474;SDS011;7323;50.848;4.334;2024-03-06T09:48:48;9.37;;;6.37;;
14474;SDS011;7323;50.848;4.334;2024-03-06T09:51:16;8.30;;;6.57;;
14474;SDS011;7323;50.848;4.334;2024-03-06T09:53:42;10.67;;;6.73;;
14474;SDS011;7323;50.848;4.334;2024-03-06T09:56:08;8.90;;;6.73;;
14474;SDS011;7323;50.848;4.334;2024-03-06T09:58:37;8.53;;;7.43;;
14474;SDS011;7323;50.848;4.334;2024-03-06T10:01:03;10.57;;;6.67;;
14474;SDS011;7323;50.848;4.334;2024-03-06T10:03:36;8.27;;;6.50;;
14474;SDS011;7323;50.848;4.334;2024-03-06T10:06:02;10.70;;;7.03;;
14474;SDS011;7323;50.848;4.334;2024-03-06T10:08:27;9.37;;;7.40;;
14474;SDS011;7323;50.848;4.334;2024-03-06T10:10:53;9.30;;;7.30;;
14474;SDS011;7323;50.848;4.334;2024-03-06T10:13:23;11.23;;;6.63;;
14474;SDS011;7323;50.848;4.334;2024-03-06T10:15:57;9.93;;;7.00;;
14474;SDS011;7323;50.848;4.334;2024-03-06T10:18:26;8.80;;;6.93;;
14474;SDS011;7323;50.848;4.334;2024-03-06T10:20:52;9.30;;;6.50;;
14474;SDS011;7323;50.848;4.334;2024-03-06T10:23:18;7.33;;;5.80;;
14474;SDS011;7323;50.848;4.334;2024-03-06T10:25:44;6.60;;;5.03;;
14474;SDS011;7323;50.848;4.334;2024-03-06T10:28:11;7.27;;;4.93;;
14474;SDS011;7323;50.848;4.334;2024-03-06T10:30:38;8.37;;;5.50;;
14474;SDS011;7323;50.848;4.334;2024-03-06T10:33:07;7.43;;;5.57;;
14474;SDS011;7323;50.848;4.334;2024-03-06T10:35:35;7.00;;;5.23;;
14474;SDS011;7323;50.848;4.334;2024-03-06T10:38:04;6.50;;;4.70;;
14474;SDS011;7323;50.848;4.334;2024-03-06T10:40:32;6.90;;;4.30;;
14474;SDS011;7323;50.848;4.334;2024-03-06T10:42:59;6.60;;;4.33;;
14474;SDS011;7323;50.848;4.334;2024-03-06T10:45:28;5.80;;;4.40;;
14474;SDS011;7323;50.848;4.334;2024-03-06T10:48:07;5.90;;;4.37;;
14474;SDS011;7323;50.848;4.334;2024-03-06T10:50:36;7.73;;;4.10;;
14474;SDS011;7323;50.848;4.334;2024-03-06T10:53:10;6.27;;;4.20;;
14474;SDS011;7323;50.848;4.334;2024-03-06T10:55:37;8.50;;;3.77;;
14474;SDS011;7323;50.848;4.334;2024-03-06T10:58:05;8.53;;;4.20;;
14474;SDS011;7323;50.848;4.334;2024-03-06T11:00:35;8.17;;;4.90;;
14474;SDS011;7323;50.848;4.334;2024-03-06T11:03:10;8.70;;;4.47;;
14474;SDS011;7323;50.848;4.334;2024-03-06T11:05:39;8.37;;;4.60;;
14474;SDS011;7323;50.848;4.334;2024-03-06T11:08:09;8.10;;;4.93;;
14474;SDS011;7323;50.848;4.334;2024-03-06T11:10:36;7.77;;;5.10;;
14474;SDS011;7323;50.848;4.334;2024-03-06T11:13:03;7.97;;;5.50;;
14474;SDS011;7323;50.848;4.334;2024-03-06T11:15:33;9.43;;;4.87;;
14474;SDS011;7323;50.848;4.334;2024-03-06T11:18:40;6.07;;;4.57;;
14474;SDS011;7323;50.848;4.334;2024-03-06T11:23:29;7.13;;;4.70;;
14474;SDS011;7323;50.848;4.334;2024-03-06T11:25:59;8.13;;;4.00;;
14474;SDS011;7323;50.848;4.334;2024-03-06T11:28:30;6.93;;;4.07;;
14474;SDS011;7323;50.848;4.334;2024-03-06T11:31:02;6.50;;;4.10;;
14474;SDS011;7323;50.848;4.334;2024-03-06T11:33:36;5.47;;;3.80;;
14474;SDS011;7323;50.848;4.334;2024-03-06T11:36:24;6.67;;;3.87;;
14474;SDS011;7323;50.848;4.334;2024-03-06T11:39:03;4.93;;;3.90;;
14474;SDS011;7323;50.848;4.334;2024-03-06T11:44:17;7.67;;;4.30;;
14474;SDS011;7323;50.848;4.334;2024-03-06T11:46:50;6.20;;;3.80;;
14474;SDS011;7323;50.848;4.334;2024-03-06T11:49:30;5.17;;;3.03;;
14474;SDS011;7323;50.848;4.334;2024-03-06T11:52:03;7.50;;;3.93;;
14474;SDS011;7323;50.848;4.334;2024-03-06T11:54:36;7.03;;;4.10;;
14474;SDS011;7323;50.848;4.334;2024-03-06T11:57:03;7.60;;;4.33;;
14474;SDS011;7323;50.848;4.334;2024-03-06T11:59:33;7.83;;;4.10;;
14474;SDS011;7323;50.848;4.334;2024-03-06T12:02:04;4.90;;;3.43;;
14474;SDS011;7323;50.848;4.334;2024-03-06T12:04:31;8.23;;;4.00;;
14474;SDS011;7323;50.848;4.334;2024-03-06T12:06:59;6.67;;;3.17;;
14474;SDS011;7323;50.848;4.334;2024-03-06T12:09:30;4.67;;;2.93;;
14474;SDS011;7323;50.848;4.334;2024-03-06T12:11:56;7.37;;;3.60;;
14474;SDS011;7323;50.848;4.334;2024-03-06T12:14:22;6.50;;;3.27;;
14474;SDS011;7323;50.848;4.334;2024-03-06T12:16:55;6.17;;;3.00;;
14474;SDS011;7323;50.848;4.334;2024-03-06T12:19:26;5.73;;;2.77;;
14474;SDS011;7323;50.848;4.334;2024-03-06T12:21:53;6.60;;;2.90;;
14474;SDS011;7323;50.848;4.334;2024-03-06T12:24:19;7.57;;;3.00;;
14474;SDS011;7323;50.848;4.334;2024-03-06T12:26:58;6.00;;;2.50;;
14474;SDS011;7323;50.848;4.334;2024-03-06T12:29:30;5.27;;;2.50;;
14474;SDS011;7323;50.848;4.334;2024-03-06T12:32:03;6.63;;;2.87;;
14474;SDS011;7323;50.848;4.334;2024-03-06T12:34:30;6.60;;;3.00;;
14474;SDS011;7323;50.848;4.334;2024-03-06T12:37:08;5.10;;;2.90;;
14474;SDS011;7323;50.848;4.334;2024-03-06T12:39:35;4.37;;;2.70;;
14474;SDS011;7323;50.848;4.334;2024-03-06T12:42:01;5.63;;;2.87;;
14474;SDS011;7323;50.848;4.334;2024-03-06T12:44:27;4.90;;;3.10;;
14474;SDS011;7323;50.848;4.334;2024-03-06T12:46:53;5.33;;;3.10;;
14474;SDS011;7323;50.848;4.334;2024-03-06T12:49:20;6.40;;;3.20;;
14474;SDS011;7323;50.848;4.334;2024-03-06T12:51:45;6.97;;;3.30;;
14474;SDS011;7323;50.848;4.334;2024-03-06T12:54:11;6.37;;;3.10;;
14474;SDS011;7323;50.848;4.334;2024-03-06T12:56:37;5.17;;;2.70;;
14474;SDS011;7323;50.848;4.334;2024-03-06T12:59:03;5.03;;;2.90;;
14474;SDS011;7323;50.848;4.334;2024-03-06T13:01:30;5.57;;;3.07;;
14474;SDS011;7323;50.848;4.334;2024-03-06T13:03:57;6.57;;;3.17;;
14474;SDS011;7323;50.848;4.334;2024-03-06T13:06:22;5.17;;;3.07;;
14474;SDS011;7323;50.848;4.334;2024-03-06T13:08:49;5.53;;;3.10;;
14474;SDS011;7323;50.848;4.334;2024-03-06T13:11:14;7.13;;;3.53;;
14474;SDS011;7323;50.848;4.334;2024-03-06T13:13:48;5.97;;;2.87;;
14474;SDS011;7323;50.848;4.334;2024-03-06T13:16:13;5.40;;;2.73;;
14474;SDS011;7323;50.848;4.334;2024-03-06T13:18:39;6.57;;;3.53;;
14474;SDS011;7323;50.848;4.334;2024-03-06T13:21:05;4.13;;;2.60;;
14474;SDS011;7323;50.848;4.334;2024-03-06T13:23:31;5.20;;;2.80;;
14474;SDS011;7323;50.848;4.334;2024-03-06T13:25:58;4.43;;;2.67;;
14474;SDS011;7323;50.848;4.334;2024-03-06T13:28:30;4.10;;;2.70;;
14474;SDS011;7323;50.848;4.334;2024-03-06T13:30:55;5.87;;;3.20;;
14474;SDS011;7323;50.848;4.334;2024-03-06T13:33:21;4.70;;;2.93;;
14474;SDS011;7323;50.848;4.334;2024-03-06T13:35:48;9.93;;;3.70;;
14474;SDS011;7323;50.848;4.334;2024-03-06T13:38:14;5.20;;;3.13;;
14474;SDS011;7323;50.848;4.334;2024-03-06T13:40:40;7.83;;;4.10;;
14474;SDS011;7323;50.848;4.334;2024-03-06T13:43:05;7.77;;;4.30;;
14474;SDS011;7323;50.848;4.334;2024-03-06T13:45:32;6.80;;;3.83;;
14474;SDS011;7323;50.848;4.334;2024-03-06T13:47:58;7.57;;;3.67;;
14474;SDS011;7323;50.848;4.334;2024-03-06T13:50:23;6.40;;;3.10;;
14474;SDS011;7323;50.848;4.334;2024-03-06T13:52:53;5.63;;;3.63;;
14474;SDS011;7323;50.848;4.334;2024-03-06T13:55:23;6.20;;;3.83;;
14474;SDS011;7323;50.848;4.334;2024-03-06T13:57:48;6.80;;;3.87;;
14474;SDS011;7323;50.848;4.334;2024-03-06T14:00:15;5.80;;;3.53;;
14474;SDS011;7323;50.848;4.334;2024-03-06T14:02:44;6.90;;;4.07;;
14474;SDS011;7323;50.848;4.334;2024-03-06T14:05:10;6.87;;;3.57;;
14474;SDS011;7323;50.848;4.334;2024-03-06T14:07:38;6.40;;;3.97;;
14474;SDS011;7323;50.848;4.334;2024-03-06T14:10:04;8.03;;;3.83;;
14474;SDS011;7323;50.848;4.334;2024-03-06T14:12:31;7.77;;;4.30;;
14474;SDS011;7323;50.848;4.334;2024-03-06T14:14:56;6.43;;;3.70;;
14474;SDS011;7323;50.848;4.334;2024-03-06T14:17:22;9.27;;;3.90;;
14474;SDS011;7323;50.848;4.334;2024-03-06T14:19:49;9.33;;;5.00;;
14474;SDS011;7323;50.848;4.334;2024-03-06T14:22:14;9.13;;;5.07;;
14474;SDS011;7323;50.848;4.334;2024-03-06T14:24:41;9.27;;;3.90;;
14474;SDS011;7323;50.848;4.334;2024-03-06T14:27:07;6.30;;;3.63;;
14474;SDS011;7323;50.848;4.334;2024-03-06T14:29:32;8.73;;;5.00;;
14474;SDS011;7323;50.848;4.334;2024-03-06T14:31:58;6.57;;;3.80;;
14474;SDS011;7323;50.848;4.334;2024-03-06T14:34:24;6.93;;;3.57;;
14474;SDS011;7323;50.848;4.334;2024-03-06T14:36:50;12.73;;;6.60;;
14474;SDS011;7323;50.848;4.334;2024-03-06T14:39:16;6.47;;;3.90;;
14474;SDS011;7323;50.848;4.334;2024-03-06T14:41:42;6.20;;;3.67;;
14474;SDS011;7323;50.848;4.334;2024-03-06T14:44:10;8.33;;;4.10;;
14474;SDS011;7323;50.848;4.334;2024-03-06T14:46:35;10.00;;;4.17;;
14474;SDS011;7323;50.848;4.334;2024-03-06T14:49:01;6.63;;;3.50;;
14474;SDS011;7323;50.848;4.334;2024-03-06T14:51:28;4.83;;;2.93;;
14474;SDS011;7323;50.848;4.334;2024-03-06T14:53:53;6.03;;;2.60;;
14474;SDS011;7323;50.848;4.334;2024-03-06T14:56:20;6.33;;;3.07;;
14474;SDS011;7323;50.848;4.334;2024-03-06T14:58:47;5.93;;;2.70;;
14474;SDS011;7323;50.848;4.334;2024-03-06T15:01:15;4.10;;;2.10;;
14474;SDS011;7323;50.848;4.334;2024-03-06T15:03:44;3.23;;;1.80;;
14474;SDS011;7323;50.848;4.334;2024-03-06T15:06:12;4.00;;;2.00;;
14474;SDS011;7323;50.848;4.334;2024-03-06T15:08:39;4.53;;;2.40;;
14474;SDS011;7323;50.848;4.334;2024-03-06T15:11:06;2.67;;;1.60;;
14474;SDS011;7323;50.848;4.334;2024-03-06T15:13:31;6.70;;;2.63;;
14474;SDS011;7323;50.848;4.334;2024-03-06T15:15:58;4.67;;;2.23;;
14474;SDS011;7323;50.848;4.334;2024-03-06T15:18:25;3.83;;;2.07;;
14474;SDS011;7323;50.848;4.334;2024-03-06T15:20:51;4.20;;;2.17;;
14474;SDS011;7323;50.848;4.334;2024-03-06T15:23:17;7.83;;;2.60;;
14474;SDS011;7323;50.848;4.334;2024-03-06T15:25:43;4.30;;;2.10;;
14474;SDS011;7323;50.848;4.334;2024-03-06T15:28:10;6.03;;;2.33;;